Modern Express — H9DG — position and weather

sailwx.info

Track history (hours):
 
Tides and Currents Weather Stations Pressure Air Temp Water Temp Dewpoint Dewpoint Depression Visibility Wind Speed Wind Dir Waves Ship Positions

Modern Express

Last reported at 2015-Jun-22 06:10 UTC. Time now 2015-Jul-05 09:26 UTC.
Position N 37°15' W 010°44'.
Warning: this ship's position is 13 days out of date.

Length 164 m; beam 28 m.

Type: Cargo ship. MMSI: 356187000.

Date/timePositionNaut miles runAvg speedWind from/ knotsBaromVisibWave heightAir tempDewpointWater temp
2015-Jun-22 06:10N 37°15' W 010°44'1016.6
2015-Jun-22 05:33N 37°25' W 010°44'1616.5
2015-Jun-22 04:33N 37°41' W 010°43'1716.8
2015-Jun-22 03:33N 37°58' W 010°42'1717.0
2015-Jun-22 02:33N 38°15' W 010°41'1716.9
2015-Jun-22 01:33N 38°32' W 010°40'1716.8
2015-Jun-22 00:33N 38°49' W 010°38'1616.3
2015-Jun-21 23:33N 39°05' W 010°37'1716.6
2015-Jun-21 22:33N 39°22' W 010°35'1615.8
2015-Jun-21 21:33N 39°37' W 010°34'1615.9
2015-Jun-21 20:33N 39°53' W 010°33'1615.8
2015-Jun-21 19:33N 40°09' W 010°32'1615.8
2015-Jun-21 18:33N 40°25' W 010°30'1615.7
2015-Jun-21 17:33N 40°41' W 010°30'1515.3
2015-Jun-21 16:33N 40°56' W 010°29'1615.8
2015-Jun-21 15:33N 41°12' W 010°28'1515.6
2015-Jun-21 14:33N 41°27' W 010°27'1615.8
2015-Jun-21 13:33N 41°43' W 010°26'1616.0
2015-Jun-21 12:33N 41°59' W 010°24'18615.5
2015-Jun-21 00:33N 44°59' W 009°16'1815.3
2015-Jun-20 23:24N 45°14' W 009°03'1615.5
2015-Jun-20 22:21N 45°27' W 008°51'4616.4
2015-Jun-20 19:33N 46°07' W 008°16'16516.1
2015-Jun-20 09:17N 48°28' W 006°10'1216.2
2015-Jun-20 08:31N 48°39' W 006°00'2214.9
2015-Jun-20 07:03N 48°56' W 005°41'714.3
2015-Jun-20 06:33N 48°60' W 005°31'1414.1
2015-Jun-20 05:33N 49°07' W 005°13'1414.4
2015-Jun-20 04:33N 49°14' W 004°54'1515.2
2015-Jun-20 03:32N 49°23' W 004°35'1515.7
2015-Jun-20 02:33N 49°31' W 004°14'1717.1
2015-Jun-20 01:33N 49°40' W 003°51'1716.9
2015-Jun-20 00:33N 49°49' W 003°29'1616.0
2015-Jun-19 23:34N 49°57' W 003°08'1514.4
2015-Jun-19 22:33N 50°02' W 002°47'1413.3
2015-Jun-19 21:32N 50°06' W 002°26'2713.2
2015-Jun-19 19:27N 50°13' W 001°45'1415.3
2015-Jun-19 18:31N 50°17' W 001°24'1917.4
2015-Jun-19 17:25N 50°22' W 000°55'3617.5
2015-Jun-19 15:22N 50°32' W 000°01'1316.5
2015-Jun-19 14:33N 50°36' E 000°19'1615.5
2015-Jun-19 13:33N 50°42' E 000°42'1515.0
2015-Jun-19 12:33N 50°51' E 001°01'1515.2
2015-Jun-19 11:34N 51°01' E 001°19'1717.2
2015-Jun-19 10:33N 51°10' E 001°42'1818.2
2015-Jun-19 09:34N 51°25' E 001°60'1615.9
2015-Jun-19 08:33N 51°22' E 002°25'1414.6
2015-Jun-19 07:34N 51°22' E 002°48'1514.7
2015-Jun-19 06:33N 51°24' E 003°11'1414.4
2015-Jun-19 05:33N 51°26' E 003°34'1211.6
2015-Jun-19 04:34N 51°21' E 003°51'8 8.1
2015-Jun-19 03:33N 51°22' E 004°04'8 8.1
2015-Jun-19 02:33N 51°20' E 004°16'4 4.4
2015-Jun-19 01:33N 51°16' E 004°17'1 0.5
2015-Jun-19 00:33N 51°16' E 004°16'2 1.6
2015-Jun-18 23:31N 51°16' E 004°13'0 0.0
2015-Jun-18 22:31N 51°16' E 004°13'0 0.0
2015-Jun-18 21:31N 51°16' E 004°13'0 0.0
2015-Jun-18 20:31N 51°16' E 004°13'0 0.0
2015-Jun-18 19:31N 51°16' E 004°13'0 0.0
2015-Jun-18 18:31N 51°16' E 004°13'0 0.0
2015-Jun-18 17:28N 51°16' E 004°13'0 0.0
2015-Jun-18 16:31N 51°16' E 004°13'0 0.0
2015-Jun-18 15:31N 51°16' E 004°13'0 0.0
2015-Jun-18 14:31N 51°16' E 004°13'0 0.0
2015-Jun-18 13:31N 51°16' E 004°13'0 0.0
2015-Jun-18 12:31N 51°16' E 004°13'0 0.0
2015-Jun-18 11:31N 51°16' E 004°13'0 0.0
2015-Jun-18 10:31N 51°16' E 004°13'0 0.0
2015-Jun-18 09:31N 51°16' E 004°13'0 0.0
2015-Jun-18 08:31N 51°16' E 004°13'0 0.0
2015-Jun-18 07:31N 51°16' E 004°13'0 0.0
2015-Jun-18 06:31N 51°16' E 004°13'0 0.0
2015-Jun-18 05:31N 51°16' E 004°13'0 0.0
2015-Jun-18 04:31N 51°16' E 004°13'0 0.0
2015-Jun-18 03:31N 51°16' E 004°13'0 0.0
2015-Jun-18 02:31N 51°16' E 004°13'0 0.0
2015-Jun-18 01:32N 51°16' E 004°13'0 0.0
2015-Jun-18 00:31N 51°16' E 004°13'0 0.0
2015-Jun-17 23:31N 51°16' E 004°13'0 0.0
2015-Jun-17 22:31N 51°16' E 004°13'0 0.0
2015-Jun-17 21:31N 51°16' E 004°13'0 0.0
2015-Jun-17 20:31N 51°16' E 004°13'0 0.0
2015-Jun-17 19:31N 51°16' E 004°13'0 0.0
2015-Jun-17 18:31N 51°16' E 004°13'0 0.0
2015-Jun-17 17:28N 51°16' E 004°13'0 0.0
2015-Jun-17 16:31N 51°16' E 004°13'0 0.0
2015-Jun-17 15:28N 51°16' E 004°13'0 0.0
2015-Jun-17 14:31N 51°16' E 004°13'0 0.0
2015-Jun-17 13:31N 51°16' E 004°13'0 0.0
2015-Jun-17 12:31N 51°16' E 004°13'0 0.0
2015-Jun-17 11:31N 51°16' E 004°13'0 0.0
2015-Jun-17 10:31N 51°16' E 004°13'0 0.0
2015-Jun-17 09:31N 51°16' E 004°13'0 0.0
2015-Jun-17 08:31N 51°16' E 004°13'0 0.0
2015-Jun-17 07:31N 51°16' E 004°13'0 0.0
2015-Jun-17 06:31N 51°16' E 004°13'0 0.0
2015-Jun-17 05:31N 51°16' E 004°13'0 0.0
2015-Jun-17 04:28N 51°16' E 004°13'0 0.0
2015-Jun-17 03:31N 51°16' E 004°13'0 0.0
2015-Jun-17 02:28N 51°16' E 004°13'0 0.0
2015-Jun-17 01:31N 51°16' E 004°13'0 0.0
2015-Jun-17 00:31N 51°16' E 004°13'0 0.0
2015-Jun-16 23:28N 51°16' E 004°13'0 0.0
2015-Jun-16 22:31N 51°16' E 004°13'0 0.0
2015-Jun-16 21:31N 51°16' E 004°13'0 0.0
2015-Jun-16 20:31N 51°16' E 004°13'0 0.0
2015-Jun-16 19:31N 51°16' E 004°13'0 0.0
2015-Jun-16 18:31N 51°16' E 004°13'0 0.0
2015-Jun-16 17:31N 51°16' E 004°13'0 0.0
2015-Jun-16 16:31N 51°16' E 004°13'0 0.0
2015-Jun-16 15:31N 51°16' E 004°13'0 0.0
2015-Jun-16 14:28N 51°16' E 004°13'0 0.0
2015-Jun-16 13:29N 51°16' E 004°13'2 2.3
2015-Jun-16 12:33N 51°16' E 004°17'1 1.1
2015-Jun-16 11:33N 51°16' E 004°18'8 8.0
2015-Jun-16 10:33N 51°23' E 004°13'6 6.0
2015-Jun-16 09:33N 51°23' E 004°03'4 3.8
2015-Jun-16 08:33N 51°23' E 003°57'10 9.7
2015-Jun-16 07:33N 51°25' E 003°42'1111.2
2015-Jun-16 06:33N 51°24' E 003°24'1313.1
2015-Jun-16 05:33N 51°24' E 003°03'1313.4
2015-Jun-16 04:33N 51°22' E 002°42'4 4.3
2015-Jun-16 03:34N 51°22' E 002°35'1 1.2
2015-Jun-16 02:33N 51°22' E 002°33'4 3.6
2015-Jun-16 01:33N 51°21' E 002°27'4 4.4
2015-Jun-16 00:33N 51°19' E 002°21'6 6.4
2015-Jun-15 23:33N 51°15' E 002°13'1616.0
2015-Jun-15 22:33N 51°08' E 001°50'1716.8
2015-Jun-15 21:33N 50°57' E 001°31'1716.5
2015-Jun-15 20:32N 50°42' E 001°19'4016.3
2015-Jun-15 18:04N 50°22' E 000°24'1416.2
2015-Jun-15 17:13N 50°18' E 000°03'2714.8
2015-Jun-15 15:25N 49°52' W 000°07'1314.7
2015-Jun-15 14:34N 49°39' W 000°07'1211.8
2015-Jun-15 13:33N 49°30' E 000°04'5 4.5
2015-Jun-15 12:33N 49°29' E 000°10'1 1.0
2015-Jun-15 11:31N 49°28' E 000°12'0 0.0
2015-Jun-15 10:31N 49°28' E 000°12'0 0.0
2015-Jun-15 09:31N 49°28' E 000°12'0 0.0
2015-Jun-15 08:31N 49°28' E 000°12'0 0.0
2015-Jun-15 07:31N 49°28' E 000°12'0 0.0
2015-Jun-15 06:31N 49°28' E 000°12'0 0.0
2015-Jun-15 05:31N 49°28' E 000°12'0 0.0
2015-Jun-15 04:31N 49°28' E 000°12'0 0.0
2015-Jun-15 03:31N 49°28' E 000°12'0 0.0
2015-Jun-15 02:31N 49°28' E 000°12'0 0.0
2015-Jun-15 01:31N 49°28' E 000°12'0 0.0
2015-Jun-15 00:31N 49°28' E 000°12'0 0.0
2015-Jun-14 23:31N 49°28' E 000°12'0 0.0
2015-Jun-14 22:31N 49°28' E 000°12'0 0.0
2015-Jun-14 21:31N 49°28' E 000°12'0 0.0
2015-Jun-14 20:31N 49°28' E 000°12'0 0.0
2015-Jun-14 19:31N 49°28' E 000°12'0 0.0
2015-Jun-14 18:31N 49°28' E 000°12'0 0.0
2015-Jun-14 17:31N 49°28' E 000°12'1 1.0
2015-Jun-14 16:33N 49°29' E 000°10'1 0.9
2015-Jun-14 15:33N 49°28' E 000°09'10 9.6
2015-Jun-14 14:33N 49°31' W 000°05'6 6.1
2015-Jun-14 13:33N 49°33' W 000°14'8 8.4
2015-Jun-14 12:33N 49°36' W 000°26'1 0.9
2015-Jun-14 11:33N 49°35' W 000°25'1 0.6
2015-Jun-14 10:33N 49°36' W 000°25'1312.8
2015-Jun-14 09:33N 49°42' W 000°42'1513.8
2015-Jun-14 08:29N 49°51' W 001°01'1313.5
2015-Jun-14 07:33N 49°58' W 001°17'1312.6
2015-Jun-14 06:32N 50°01' W 001°36'1716.6
2015-Jun-14 05:32N 49°57' W 002°01'  
Track history (hours):
 
Tides and Currents Weather Stations Pressure Air Temp Water Temp Dewpoint Dewpoint Depression Visibility Wind Speed Wind Dir Waves Ship Positions

Modern Express

Last reported at 2015-Jun-22 06:10 UTC. Time now 2015-Jul-05 09:26 UTC.
Position N 37°15' W 010°44'.
Warning: this ship's position is 13 days out of date.

Length 164 m; beam 28 m.

Type: Cargo ship. MMSI: 356187000.

Date/timePositionNaut miles runAvg speedWind from/ knotsBaromVisibWave heightAir tempDewpointWater temp
2015-Jun-22 06:10N 37°15' W 010°44'1016.6
2015-Jun-22 05:33N 37°25' W 010°44'1616.5
2015-Jun-22 04:33N 37°41' W 010°43'1716.8
2015-Jun-22 03:33N 37°58' W 010°42'1717.0
2015-Jun-22 02:33N 38°15' W 010°41'1716.9
2015-Jun-22 01:33N 38°32' W 010°40'1716.8
2015-Jun-22 00:33N 38°49' W 010°38'1616.3
2015-Jun-21 23:33N 39°05' W 010°37'1716.6
2015-Jun-21 22:33N 39°22' W 010°35'1615.8
2015-Jun-21 21:33N 39°37' W 010°34'1615.9
2015-Jun-21 20:33N 39°53' W 010°33'1615.8
2015-Jun-21 19:33N 40°09' W 010°32'1615.8
2015-Jun-21 18:33N 40°25' W 010°30'1615.7
2015-Jun-21 17:33N 40°41' W 010°30'1515.3
2015-Jun-21 16:33N 40°56' W 010°29'1615.8
2015-Jun-21 15:33N 41°12' W 010°28'1515.6
2015-Jun-21 14:33N 41°27' W 010°27'1615.8
2015-Jun-21 13:33N 41°43' W 010°26'1616.0
2015-Jun-21 12:33N 41°59' W 010°24'18615.5
2015-Jun-21 00:33N 44°59' W 009°16'1815.3
2015-Jun-20 23:24N 45°14' W 009°03'1615.5
2015-Jun-20 22:21N 45°27' W 008°51'4616.4
2015-Jun-20 19:33N 46°07' W 008°16'16516.1
2015-Jun-20 09:17N 48°28' W 006°10'1216.2
2015-Jun-20 08:31N 48°39' W 006°00'2214.9
2015-Jun-20 07:03N 48°56' W 005°41'714.3
2015-Jun-20 06:33N 48°60' W 005°31'1414.1
2015-Jun-20 05:33N 49°07' W 005°13'1414.4
2015-Jun-20 04:33N 49°14' W 004°54'1515.2
2015-Jun-20 03:32N 49°23' W 004°35'1515.7
2015-Jun-20 02:33N 49°31' W 004°14'1717.1
2015-Jun-20 01:33N 49°40' W 003°51'1716.9
2015-Jun-20 00:33N 49°49' W 003°29'1616.0
2015-Jun-19 23:34N 49°57' W 003°08'1514.4
2015-Jun-19 22:33N 50°02' W 002°47'1413.3
2015-Jun-19 21:32N 50°06' W 002°26'2713.2
2015-Jun-19 19:27N 50°13' W 001°45'1415.3
2015-Jun-19 18:31N 50°17' W 001°24'1917.4
2015-Jun-19 17:25N 50°22' W 000°55'3617.5
2015-Jun-19 15:22N 50°32' W 000°01'1316.5
2015-Jun-19 14:33N 50°36' E 000°19'1615.5
2015-Jun-19 13:33N 50°42' E 000°42'1515.0
2015-Jun-19 12:33N 50°51' E 001°01'1515.2
2015-Jun-19 11:34N 51°01' E 001°19'1717.2
2015-Jun-19 10:33N 51°10' E 001°42'1818.2
2015-Jun-19 09:34N 51°25' E 001°60'1615.9
2015-Jun-19 08:33N 51°22' E 002°25'1414.6
2015-Jun-19 07:34N 51°22' E 002°48'1514.7
2015-Jun-19 06:33N 51°24' E 003°11'1414.4
2015-Jun-19 05:33N 51°26' E 003°34'1211.6
2015-Jun-19 04:34N 51°21' E 003°51'8 8.1
2015-Jun-19 03:33N 51°22' E 004°04'8 8.1
2015-Jun-19 02:33N 51°20' E 004°16'4 4.4
2015-Jun-19 01:33N 51°16' E 004°17'1 0.5
2015-Jun-19 00:33N 51°16' E 004°16'2 1.6
2015-Jun-18 23:31N 51°16' E 004°13'0 0.0
2015-Jun-18 22:31N 51°16' E 004°13'0 0.0
2015-Jun-18 21:31N 51°16' E 004°13'0 0.0
2015-Jun-18 20:31N 51°16' E 004°13'0 0.0
2015-Jun-18 19:31N 51°16' E 004°13'0 0.0
2015-Jun-18 18:31N 51°16' E 004°13'0 0.0
2015-Jun-18 17:28N 51°16' E 004°13'0 0.0
2015-Jun-18 16:31N 51°16' E 004°13'0 0.0
2015-Jun-18 15:31N 51°16' E 004°13'0 0.0
2015-Jun-18 14:31N 51°16' E 004°13'0 0.0
2015-Jun-18 13:31N 51°16' E 004°13'0 0.0
2015-Jun-18 12:31N 51°16' E 004°13'0 0.0
2015-Jun-18 11:31N 51°16' E 004°13'0 0.0
2015-Jun-18 10:31N 51°16' E 004°13'0 0.0
2015-Jun-18 09:31N 51°16' E 004°13'0 0.0
2015-Jun-18 08:31N 51°16' E 004°13'0 0.0
2015-Jun-18 07:31N 51°16' E 004°13'0 0.0
2015-Jun-18 06:31N 51°16' E 004°13'0 0.0
2015-Jun-18 05:31N 51°16' E 004°13'0 0.0
2015-Jun-18 04:31N 51°16' E 004°13'0 0.0
2015-Jun-18 03:31N 51°16' E 004°13'0 0.0
2015-Jun-18 02:31N 51°16' E 004°13'0 0.0
2015-Jun-18 01:32N 51°16' E 004°13'0 0.0
2015-Jun-18 00:31N 51°16' E 004°13'0 0.0
2015-Jun-17 23:31N 51°16' E 004°13'0 0.0
2015-Jun-17 22:31N 51°16' E 004°13'0 0.0
2015-Jun-17 21:31N 51°16' E 004°13'0 0.0
2015-Jun-17 20:31N 51°16' E 004°13'0 0.0
2015-Jun-17 19:31N 51°16' E 004°13'0 0.0
2015-Jun-17 18:31N 51°16' E 004°13'0 0.0
2015-Jun-17 17:28N 51°16' E 004°13'0 0.0
2015-Jun-17 16:31N 51°16' E 004°13'0 0.0
2015-Jun-17 15:28N 51°16' E 004°13'0 0.0
2015-Jun-17 14:31N 51°16' E 004°13'0 0.0
2015-Jun-17 13:31N 51°16' E 004°13'0 0.0
2015-Jun-17 12:31N 51°16' E 004°13'0 0.0
2015-Jun-17 11:31N 51°16' E 004°13'0 0.0
2015-Jun-17 10:31N 51°16' E 004°13'0 0.0
2015-Jun-17 09:31N 51°16' E 004°13'0 0.0
2015-Jun-17 08:31N 51°16' E 004°13'0 0.0
2015-Jun-17 07:31N 51°16' E 004°13'0 0.0
2015-Jun-17 06:31N 51°16' E 004°13'0 0.0
2015-Jun-17 05:31N 51°16' E 004°13'0 0.0
2015-Jun-17 04:28N 51°16' E 004°13'0 0.0
2015-Jun-17 03:31N 51°16' E 004°13'0 0.0
2015-Jun-17 02:28N 51°16' E 004°13'0 0.0
2015-Jun-17 01:31N 51°16' E 004°13'0 0.0
2015-Jun-17 00:31N 51°16' E 004°13'0 0.0
2015-Jun-16 23:28N 51°16' E 004°13'0 0.0
2015-Jun-16 22:31N 51°16' E 004°13'0 0.0
2015-Jun-16 21:31N 51°16' E 004°13'0 0.0
2015-Jun-16 20:31N 51°16' E 004°13'0 0.0
2015-Jun-16 19:31N 51°16' E 004°13'0 0.0
2015-Jun-16 18:31N 51°16' E 004°13'0 0.0
2015-Jun-16 17:31N 51°16' E 004°13'0 0.0
2015-Jun-16 16:31N 51°16' E 004°13'0 0.0
2015-Jun-16 15:31N 51°16' E 004°13'0 0.0
2015-Jun-16 14:28N 51°16' E 004°13'0 0.0
2015-Jun-16 13:29N 51°16' E 004°13'2 2.3
2015-Jun-16 12:33N 51°16' E 004°17'1 1.1
2015-Jun-16 11:33N 51°16' E 004°18'8 8.0
2015-Jun-16 10:33N 51°23' E 004°13'6 6.0
2015-Jun-16 09:33N 51°23' E 004°03'4 3.8
2015-Jun-16 08:33N 51°23' E 003°57'10 9.7
2015-Jun-16 07:33N 51°25' E 003°42'1111.2
2015-Jun-16 06:33N 51°24' E 003°24'1313.1
2015-Jun-16 05:33N 51°24' E 003°03'1313.4
2015-Jun-16 04:33N 51°22' E 002°42'4 4.3
2015-Jun-16 03:34N 51°22' E 002°35'1 1.2
2015-Jun-16 02:33N 51°22' E 002°33'4 3.6
2015-Jun-16 01:33N 51°21' E 002°27'4 4.4
2015-Jun-16 00:33N 51°19' E 002°21'6 6.4
2015-Jun-15 23:33N 51°15' E 002°13'1616.0
2015-Jun-15 22:33N 51°08' E 001°50'1716.8
2015-Jun-15 21:33N 50°57' E 001°31'1716.5
2015-Jun-15 20:32N 50°42' E 001°19'4016.3
2015-Jun-15 18:04N 50°22' E 000°24'1416.2
2015-Jun-15 17:13N 50°18' E 000°03'2714.8
2015-Jun-15 15:25N 49°52' W 000°07'1314.7
2015-Jun-15 14:34N 49°39' W 000°07'1211.8
2015-Jun-15 13:33N 49°30' E 000°04'5 4.5
2015-Jun-15 12:33N 49°29' E 000°10'1 1.0
2015-Jun-15 11:31N 49°28' E 000°12'0 0.0
2015-Jun-15 10:31N 49°28' E 000°12'0 0.0
2015-Jun-15 09:31N 49°28' E 000°12'0 0.0
2015-Jun-15 08:31N 49°28' E 000°12'0 0.0
2015-Jun-15 07:31N 49°28' E 000°12'0 0.0
2015-Jun-15 06:31N 49°28' E 000°12'0 0.0
2015-Jun-15 05:31N 49°28' E 000°12'0 0.0
2015-Jun-15 04:31N 49°28' E 000°12'0 0.0
2015-Jun-15 03:31N 49°28' E 000°12'0 0.0
2015-Jun-15 02:31N 49°28' E 000°12'0 0.0
2015-Jun-15 01:31N 49°28' E 000°12'0 0.0
2015-Jun-15 00:31N 49°28' E 000°12'0 0.0
2015-Jun-14 23:31N 49°28' E 000°12'0 0.0
2015-Jun-14 22:31N 49°28' E 000°12'0 0.0
2015-Jun-14 21:31N 49°28' E 000°12'0 0.0
2015-Jun-14 20:31N 49°28' E 000°12'0 0.0
2015-Jun-14 19:31N 49°28' E 000°12'0 0.0
2015-Jun-14 18:31N 49°28' E 000°12'0 0.0
2015-Jun-14 17:31N 49°28' E 000°12'1 1.0
2015-Jun-14 16:33N 49°29' E 000°10'1 0.9
2015-Jun-14 15:33N 49°28' E 000°09'10 9.6
2015-Jun-14 14:33N 49°31' W 000°05'6 6.1
2015-Jun-14 13:33N 49°33' W 000°14'8 8.4
2015-Jun-14 12:33N 49°36' W 000°26'1 0.9
2015-Jun-14 11:33N 49°35' W 000°25'1 0.6
2015-Jun-14 10:33N 49°36' W 000°25'1312.8
2015-Jun-14 09:33N 49°42' W 000°42'1513.8
2015-Jun-14 08:29N 49°51' W 001°01'1313.5
2015-Jun-14 07:33N 49°58' W 001°17'1312.6
2015-Jun-14 06:32N 50°01' W 001°36'1716.6
2015-Jun-14 05:32N 49°57' W 002°01'  

Dump ship's entire track history